createdAt,value
2023-02-11T00:04:39.750Z,24.33
2023-02-11T00:09:42.761Z,26.27
2023-02-11T00:14:44.314Z,23.30
2023-02-11T00:19:49.368Z,22.80
2023-02-11T00:24:52.391Z,20.08
2023-02-11T00:29:54.152Z,19.52
2023-02-11T00:34:55.810Z,20.23
2023-02-11T00:39:58.839Z,21.08
2023-02-11T00:45:00.470Z,20.88
2023-02-11T00:50:02.156Z,20.17
2023-02-11T00:55:05.746Z,17.88
2023-02-11T01:00:09.412Z,16.10
2023-02-11T01:05:12.196Z,16.23
2023-02-11T01:10:15.164Z,16.05
2023-02-11T01:15:19.165Z,14.95
2023-02-11T01:20:23.274Z,16.67
2023-02-11T01:25:26.306Z,16.40
2023-02-11T01:30:27.985Z,17.20
2023-02-11T01:35:29.615Z,17.30
2023-02-11T01:40:32.577Z,13.25
2023-02-11T01:46:04.423Z,12.60
2023-02-11T01:51:10.910Z,11.90
2023-02-11T01:56:14.966Z,13.07
2023-02-11T02:01:21.903Z,12.02
2023-02-11T02:06:31.163Z,11.90
2023-02-11T02:11:34.605Z,12.52
2023-02-11T02:16:37.143Z,14.23
2023-02-11T02:22:07.374Z,16.48
2023-02-11T02:27:41.147Z,14.30
2023-02-11T02:32:50.692Z,14.32
2023-02-11T02:38:01.437Z,14.00
2023-02-11T02:43:04.393Z,15.43
2023-02-11T02:48:07.464Z,16.58
2023-02-11T02:53:24.936Z,16.95
2023-02-11T02:58:59.264Z,16.30
2023-02-11T03:04:11.845Z,15.18
2023-02-11T03:09:19.144Z,12.80
2023-02-11T03:14:24.556Z,12.88
2023-02-11T03:19:31.966Z,12.23
2023-02-11T03:24:36.969Z,12.23
2023-02-11T03:29:43.384Z,12.40
2023-02-11T03:34:49.416Z,11.98
2023-02-11T03:39:55.524Z,11.73
2023-02-11T03:45:03.123Z,13.20
2023-02-11T03:55:13.216Z,12.02
2023-02-11T04:00:15.663Z,12.18
2023-02-11T04:05:18.787Z,11.43
2023-02-11T04:10:20.569Z,12.05
2023-02-11T04:15:22.125Z,12.05
2023-02-11T04:20:25.119Z,12.18
2023-02-11T04:25:26.734Z,12.25
2023-02-11T04:30:28.763Z,11.85
2023-02-11T04:35:31.734Z,12.80
2023-02-11T04:40:33.428Z,11.73
2023-02-11T04:45:35.154Z,11.65
2023-02-11T04:50:38.077Z,11.23
2023-02-11T04:55:39.705Z,10.38
2023-02-11T05:00:41.273Z,10.48
2023-02-11T05:05:44.398Z,12.07
2023-02-11T05:10:46.394Z,11.75
2023-02-11T05:15:48.400Z,11.63
2023-02-11T05:20:51.459Z,11.73
2023-02-11T05:25:53.247Z,11.77
2023-02-11T05:30:55.207Z,11.85
2023-02-11T05:35:59.934Z,11.63
2023-02-11T05:41:01.898Z,10.77
2023-02-11T05:46:04.063Z,11.48
2023-02-11T05:51:07.134Z,10.70
2023-02-11T05:56:08.778Z,10.85
2023-02-11T06:01:10.374Z,11.57
2023-02-11T06:06:13.384Z,13.15
2023-02-11T06:11:15.034Z,13.50
2023-02-11T06:16:16.759Z,13.85
2023-02-11T06:21:19.702Z,16.60
2023-02-11T06:26:23.227Z,16.23
2023-02-11T06:31:25.038Z,17.45
2023-02-11T06:36:28.150Z,16.80
2023-02-11T06:41:29.774Z,20.67
2023-02-11T06:46:31.488Z,16.73
2023-02-11T06:51:34.448Z,15.30
2023-02-11T06:56:36.119Z,15.68
2023-02-11T07:01:37.836Z,16.05
2023-02-11T07:06:41.129Z,16.63
2023-02-11T07:11:42.733Z,16.23
2023-02-11T07:16:44.280Z,16.23
2023-02-11T07:21:47.257Z,17.00
2023-02-11T07:26:48.926Z,16.30
2023-02-11T07:31:50.651Z,15.68
2023-02-11T07:36:53.576Z,15.13
2023-02-11T07:41:55.331Z,15.00
2023-02-11T07:46:56.992Z,14.82
2023-02-11T07:51:59.932Z,15.65
2023-02-11T07:57:01.523Z,15.75
2023-02-11T08:02:03.546Z,18.80
2023-02-11T08:07:06.617Z,15.57
2023-02-11T08:12:08.225Z,14.85
2023-02-11T08:17:09.822Z,13.07
2023-02-11T08:22:12.706Z,12.05
2023-02-11T08:27:14.267Z,10.00
2023-02-11T08:32:15.954Z,10.02
2023-02-11T08:37:19.065Z,10.77
2023-02-11T08:42:20.736Z,9.70
2023-02-11T08:47:22.313Z,8.38
2023-02-11T08:52:25.191Z,8.75
2023-02-11T08:57:26.713Z,8.90
2023-02-11T09:02:28.359Z,7.80
2023-02-11T09:07:31.370Z,7.97
2023-02-11T09:12:32.960Z,8.27
2023-02-11T09:17:34.508Z,10.15
2023-02-11T09:22:37.407Z,9.68
2023-02-11T09:27:38.985Z,9.85
2023-02-11T09:32:40.564Z,8.18
2023-02-11T09:37:43.441Z,7.47
2023-02-11T09:42:50.635Z,6.75
2023-02-11T09:47:56.679Z,6.38
2023-02-11T09:53:02.354Z,7.40
2023-02-11T09:58:07.692Z,6.88
2023-02-11T10:03:51.950Z,7.20
2023-02-11T10:09:04.595Z,7.32
2023-02-11T10:14:21.710Z,7.03
2023-02-11T10:19:43.233Z,7.37
2023-02-11T10:24:52.102Z,7.57
2023-02-11T10:29:58.952Z,8.75
2023-02-11T10:35:03.498Z,10.23
2023-02-11T10:40:13.609Z,11.10
2023-02-11T10:45:19.557Z,10.32
2023-02-11T10:50:24.890Z,10.85
2023-02-11T10:55:28.084Z,14.70
2023-02-11T11:00:35.082Z,9.43
2023-02-11T11:05:45.595Z,9.10
2023-02-11T11:11:01.013Z,9.05
2023-02-11T11:16:25.025Z,10.98
2023-02-11T11:21:40.545Z,9.63
2023-02-11T11:26:46.545Z,9.52
2023-02-11T11:31:52.844Z,9.90
2023-02-11T11:37:09.998Z,8.07
2023-02-11T11:42:26.193Z,8.60
2023-02-11T11:47:36.088Z,8.02
2023-02-11T11:52:43.746Z,6.65
2023-02-11T12:03:33.299Z,6.88
2023-02-11T12:08:44.082Z,6.78
2023-02-11T12:14:03.754Z,7.72
2023-02-11T12:19:30.290Z,7.80
2023-02-11T12:24:53.250Z,7.63
2023-02-11T12:30:07.312Z,8.10
2023-02-11T12:35:23.790Z,8.90
2023-02-11T12:40:34.271Z,8.25
2023-02-11T12:45:53.758Z,9.00
2023-02-11T12:51:02.776Z,7.90
2023-02-11T12:56:10.386Z,10.35
2023-02-11T13:01:20.563Z,10.13
2023-02-11T13:06:28.256Z,11.65
2023-02-11T13:11:37.487Z,11.45
2023-02-11T13:16:42.927Z,11.98
2023-02-11T13:22:02.979Z,12.55
2023-02-11T13:27:15.067Z,13.52
2023-02-11T13:32:18.043Z,12.45
2023-02-11T13:37:22.598Z,13.27
2023-02-11T13:42:24.417Z,12.98
2023-02-11T13:47:30.101Z,13.40
2023-02-11T13:52:34.876Z,13.82
2023-02-11T13:57:39.523Z,15.30
2023-02-11T14:02:42.572Z,15.15
2023-02-11T14:08:13.514Z,16.63
2023-02-11T14:13:23.674Z,16.45
2023-02-11T14:18:54.551Z,16.60
2023-02-11T14:24:33.412Z,16.80
2023-02-11T14:29:42.010Z,14.98
2023-02-11T14:34:53.604Z,15.40
2023-02-11T14:40:02.664Z,17.42
2023-02-11T14:45:07.619Z,17.30
2023-02-11T14:50:17.805Z,15.75
2023-02-11T14:55:29.413Z,19.85
2023-02-11T15:00:31.163Z,15.55
2023-02-11T15:05:34.985Z,16.10
2023-02-11T15:10:42.521Z,14.98
2023-02-11T15:15:45.391Z,15.32
2023-02-11T15:20:49.365Z,14.25
2023-02-11T15:25:51.218Z,10.50
2023-02-11T15:31:01.248Z,9.10
2023-02-11T15:36:05.149Z,7.93
2023-02-11T15:41:07.288Z,9.55
2023-02-11T15:46:10.415Z,10.85
2023-02-11T15:51:21.038Z,8.60
2023-02-11T15:56:25.196Z,9.23
2023-02-11T16:01:34.062Z,9.90
2023-02-11T16:06:39.770Z,9.50
2023-02-11T16:11:54.826Z,10.40
2023-02-11T16:16:59.381Z,11.63
2023-02-11T16:22:08.581Z,11.23
2023-02-11T16:27:21.256Z,6.55
2023-02-11T16:32:24.547Z,8.40
2023-02-11T16:37:27.604Z,5.82
2023-02-11T16:42:29.356Z,6.50
2023-02-11T16:47:31.487Z,10.10
2023-02-11T16:52:36.319Z,6.13
2023-02-11T16:57:38.016Z,10.43
2023-02-11T17:02:39.729Z,9.82
2023-02-11T17:07:42.648Z,8.80
2023-02-11T17:12:44.370Z,10.75
2023-02-11T17:17:45.967Z,11.52
2023-02-11T17:22:49.183Z,10.40
2023-02-11T17:27:52.849Z,11.77
2023-02-11T17:32:54.594Z,12.13
2023-02-11T17:37:57.507Z,11.02
2023-02-11T17:42:59.182Z,12.23
2023-02-11T17:48:01.017Z,12.73
2023-02-11T17:53:04.035Z,13.25
2023-02-11T17:58:05.760Z,13.13
2023-02-11T18:03:07.347Z,12.18
2023-02-11T18:08:10.380Z,12.35
2023-02-11T18:13:11.954Z,13.27
2023-02-11T18:18:13.829Z,13.93
2023-02-11T18:23:16.908Z,14.45
2023-02-11T18:28:18.657Z,14.38
2023-02-11T18:33:20.315Z,14.48
2023-02-11T18:38:24.108Z,14.00
2023-02-11T18:43:25.729Z,14.60
2023-02-11T18:48:28.030Z,15.02
2023-02-11T18:53:30.903Z,15.40
2023-02-11T18:58:32.543Z,15.02
2023-02-11T19:03:34.133Z,15.88
2023-02-11T19:08:37.043Z,15.73
2023-02-11T19:13:39.080Z,15.93
2023-02-11T19:18:41.738Z,15.90
2023-02-11T19:23:44.680Z,14.88
2023-02-11T19:28:46.276Z,17.15
2023-02-11T19:33:47.881Z,15.45
2023-02-11T19:38:50.833Z,15.60
2023-02-11T19:43:52.452Z,16.70
2023-02-11T19:48:56.885Z,16.63
2023-02-11T19:54:00.431Z,16.05
2023-02-11T19:59:02.706Z,17.88
2023-02-11T20:04:04.452Z,18.60
2023-02-11T20:09:09.184Z,18.50
2023-02-11T20:14:12.955Z,17.52
2023-02-11T20:19:14.644Z,17.70
2023-02-11T20:24:18.497Z,17.92
2023-02-11T20:29:20.575Z,17.65
2023-02-11T20:34:22.530Z,19.00
2023-02-11T20:39:25.736Z,17.30
2023-02-11T20:44:27.300Z,16.52
2023-02-11T20:49:29.282Z,19.50
2023-02-11T20:54:32.228Z,19.23
2023-02-11T20:59:33.857Z,18.58
2023-02-11T21:04:35.476Z,21.67
2023-02-11T21:09:38.470Z,17.48
2023-02-11T21:14:40.120Z,18.35
2023-02-11T21:19:42.239Z,18.25
2023-02-11T21:24:45.186Z,18.83
2023-02-11T21:29:54.078Z,17.80
2023-02-11T21:34:56.300Z,18.42
2023-02-11T21:39:59.192Z,16.27
2023-02-11T21:45:00.766Z,16.45
2023-02-11T21:50:02.428Z,18.60
2023-02-11T21:55:06.206Z,17.25
2023-02-11T22:00:10.112Z,17.83
2023-02-11T22:05:11.757Z,18.27
2023-02-11T22:10:14.719Z,17.63
2023-02-11T22:15:16.503Z,16.95
2023-02-11T22:20:18.192Z,18.73
2023-02-11T22:25:21.142Z,16.67
2023-02-11T22:30:22.701Z,18.05
2023-02-11T22:35:24.287Z,17.40
2023-02-11T22:40:27.441Z,17.13
2023-02-11T22:45:29.043Z,17.15
2023-02-11T22:50:30.627Z,13.35
2023-02-11T22:55:36.447Z,16.15
2023-02-11T23:00:40.587Z,14.63
2023-02-11T23:05:42.429Z,19.95
2023-02-11T23:10:45.441Z,19.83
2023-02-11T23:15:47.938Z,22.38
2023-02-11T23:20:49.535Z,18.23
2023-02-11T23:25:52.412Z,23.25
2023-02-11T23:30:54.458Z,20.27
2023-02-11T23:35:56.271Z,20.67
2023-02-11T23:40:59.395Z,20.33
2023-02-11T23:46:01.066Z,25.52
2023-02-11T23:51:03.363Z,25.55
2023-02-11T23:56:13.780Z,26.08
